sensor_id;sensor_type;location;lat;lon;timestamp;P1;durP1;ratioP1;P2;durP2;ratioP2
27566;SDS011;15006;48.584;9.186;2023-02-18T00:01:29;0.93;;;0.93;;
27566;SDS011;15006;48.584;9.186;2023-02-18T00:03:58;1.35;;;1.25;;
27566;SDS011;15006;48.584;9.186;2023-02-18T00:06:28;2.05;;;1.00;;
27566;SDS011;15006;48.584;9.186;2023-02-18T00:09:02;0.75;;;0.75;;
27566;SDS011;15006;48.584;9.186;2023-02-18T00:11:33;1.13;;;0.82;;
27566;SDS011;15006;48.584;9.186;2023-02-18T00:14:03;1.13;;;1.10;;
27566;SDS011;15006;48.584;9.186;2023-02-18T00:16:36;0.98;;;0.98;;
27566;SDS011;15006;48.584;9.186;2023-02-18T00:19:04;1.05;;;0.93;;
27566;SDS011;15006;48.584;9.186;2023-02-18T00:21:36;0.80;;;0.80;;
27566;SDS011;15006;48.584;9.186;2023-02-18T00:24:09;0.80;;;0.80;;
27566;SDS011;15006;48.584;9.186;2023-02-18T00:26:43;0.73;;;0.73;;
27566;SDS011;15006;48.584;9.186;2023-02-18T00:29:10;1.02;;;1.02;;
27566;SDS011;15006;48.584;9.186;2023-02-18T00:31:41;1.13;;;1.13;;
27566;SDS011;15006;48.584;9.186;2023-02-18T00:34:09;1.35;;;1.33;;
27566;SDS011;15006;48.584;9.186;2023-02-18T00:36:38;1.23;;;1.20;;
27566;SDS011;15006;48.584;9.186;2023-02-18T00:39:06;1.70;;;1.60;;
27566;SDS011;15006;48.584;9.186;2023-02-18T00:41:35;1.10;;;1.10;;
27566;SDS011;15006;48.584;9.186;2023-02-18T00:44:04;1.08;;;1.08;;
27566;SDS011;15006;48.584;9.186;2023-02-18T00:46:32;2.90;;;1.15;;
27566;SDS011;15006;48.584;9.186;2023-02-18T00:49:02;1.38;;;1.30;;
27566;SDS011;15006;48.584;9.186;2023-02-18T00:51:32;1.25;;;1.20;;
27566;SDS011;15006;48.584;9.186;2023-02-18T00:54:00;1.25;;;1.25;;
27566;SDS011;15006;48.584;9.186;2023-02-18T00:56:29;1.38;;;1.27;;
27566;SDS011;15006;48.584;9.186;2023-02-18T00:58:57;1.30;;;1.20;;
27566;SDS011;15006;48.584;9.186;2023-02-18T01:01:28;1.08;;;1.08;;
27566;SDS011;15006;48.584;9.186;2023-02-18T01:03:57;1.20;;;1.20;;
27566;SDS011;15006;48.584;9.186;2023-02-18T01:06:25;1.45;;;1.30;;
27566;SDS011;15006;48.584;9.186;2023-02-18T01:08:54;1.45;;;1.35;;
27566;SDS011;15006;48.584;9.186;2023-02-18T01:11:21;1.83;;;1.73;;
27566;SDS011;15006;48.584;9.186;2023-02-18T01:13:47;1.35;;;1.25;;
27566;SDS011;15006;48.584;9.186;2023-02-18T01:16:14;1.35;;;1.25;;
27566;SDS011;15006;48.584;9.186;2023-02-18T01:18:41;1.65;;;1.30;;
27566;SDS011;15006;48.584;9.186;2023-02-18T01:21:08;1.10;;;1.10;;
27566;SDS011;15006;48.584;9.186;2023-02-18T01:23:38;1.58;;;1.48;;
27566;SDS011;15006;48.584;9.186;2023-02-18T01:26:05;1.27;;;1.25;;
27566;SDS011;15006;48.584;9.186;2023-02-18T01:28:33;1.20;;;1.20;;
27566;SDS011;15006;48.584;9.186;2023-02-18T01:31:03;1.30;;;1.20;;
27566;SDS011;15006;48.584;9.186;2023-02-18T01:33:35;1.13;;;1.13;;
27566;SDS011;15006;48.584;9.186;2023-02-18T01:36:02;1.10;;;1.10;;
27566;SDS011;15006;48.584;9.186;2023-02-18T01:38:28;1.10;;;1.10;;
27566;SDS011;15006;48.584;9.186;2023-02-18T01:40:54;1.20;;;1.20;;
27566;SDS011;15006;48.584;9.186;2023-02-18T01:43:21;1.13;;;1.13;;
27566;SDS011;15006;48.584;9.186;2023-02-18T01:45:54;1.40;;;1.30;;
27566;SDS011;15006;48.584;9.186;2023-02-18T01:51:11;6.45;;;1.80;;
27566;SDS011;15006;48.584;9.186;2023-02-18T01:53:50;1.00;;;1.00;;
27566;SDS011;15006;48.584;9.186;2023-02-18T01:56:20;1.15;;;1.15;;
27566;SDS011;15006;48.584;9.186;2023-02-18T01:58:52;1.10;;;1.10;;
27566;SDS011;15006;48.584;9.186;2023-02-18T02:01:21;0.90;;;0.90;;
27566;SDS011;15006;48.584;9.186;2023-02-18T02:03:48;1.02;;;1.02;;
27566;SDS011;15006;48.584;9.186;2023-02-18T02:06:18;1.17;;;1.10;;
27566;SDS011;15006;48.584;9.186;2023-02-18T02:11:28;1.00;;;1.00;;
27566;SDS011;15006;48.584;9.186;2023-02-18T02:22:49;1.00;;;1.00;;
27566;SDS011;15006;48.584;9.186;2023-02-18T02:31:34;0.82;;;0.82;;
27566;SDS011;15006;48.584;9.186;2023-02-18T02:37:25;0.98;;;0.90;;
27566;SDS011;15006;48.584;9.186;2023-02-18T02:40:03;0.80;;;0.80;;
27566;SDS011;15006;48.584;9.186;2023-02-18T02:54:40;0.63;;;0.63;;
27566;SDS011;15006;48.584;9.186;2023-02-18T02:59:40;0.93;;;0.85;;
27566;SDS011;15006;48.584;9.186;2023-02-18T03:04:58;0.75;;;0.75;;
27566;SDS011;15006;48.584;9.186;2023-02-18T03:07:45;0.80;;;0.75;;
27566;SDS011;15006;48.584;9.186;2023-02-18T03:11:05;0.70;;;0.70;;
27566;SDS011;15006;48.584;9.186;2023-02-18T03:21:47;0.82;;;0.77;;
27566;SDS011;15006;48.584;9.186;2023-02-18T03:24:33;0.77;;;0.77;;
27566;SDS011;15006;48.584;9.186;2023-02-18T03:27:09;0.82;;;0.82;;
27566;SDS011;15006;48.584;9.186;2023-02-18T03:29:49;0.85;;;0.85;;
27566;SDS011;15006;48.584;9.186;2023-02-18T03:32:21;0.70;;;0.70;;
27566;SDS011;15006;48.584;9.186;2023-02-18T03:34:54;0.70;;;0.70;;
27566;SDS011;15006;48.584;9.186;2023-02-18T03:37:30;0.70;;;0.70;;
27566;SDS011;15006;48.584;9.186;2023-02-18T03:39:57;0.57;;;0.57;;
27566;SDS011;15006;48.584;9.186;2023-02-18T03:42:26;0.60;;;0.60;;
27566;SDS011;15006;48.584;9.186;2023-02-18T03:44:53;0.55;;;0.55;;
27566;SDS011;15006;48.584;9.186;2023-02-18T03:47:19;0.60;;;0.60;;
27566;SDS011;15006;48.584;9.186;2023-02-18T03:49:45;1.52;;;1.00;;
27566;SDS011;15006;48.584;9.186;2023-02-18T03:52:11;0.85;;;0.80;;
27566;SDS011;15006;48.584;9.186;2023-02-18T03:54:37;0.50;;;0.50;;
27566;SDS011;15006;48.584;9.186;2023-02-18T03:57:03;0.70;;;0.70;;
27566;SDS011;15006;48.584;9.186;2023-02-18T03:59:29;0.70;;;0.70;;
27566;SDS011;15006;48.584;9.186;2023-02-18T04:01:55;0.60;;;0.60;;
27566;SDS011;15006;48.584;9.186;2023-02-18T04:04:21;0.60;;;0.60;;
27566;SDS011;15006;48.584;9.186;2023-02-18T04:06:47;0.70;;;0.70;;
27566;SDS011;15006;48.584;9.186;2023-02-18T04:09:13;0.65;;;0.65;;
27566;SDS011;15006;48.584;9.186;2023-02-18T04:11:39;0.60;;;0.60;;
27566;SDS011;15006;48.584;9.186;2023-02-18T04:14:05;0.80;;;0.80;;
27566;SDS011;15006;48.584;9.186;2023-02-18T04:16:32;0.90;;;0.90;;
27566;SDS011;15006;48.584;9.186;2023-02-18T04:18:58;0.80;;;0.80;;
27566;SDS011;15006;48.584;9.186;2023-02-18T04:21:24;0.65;;;0.65;;
27566;SDS011;15006;48.584;9.186;2023-02-18T04:23:50;0.80;;;0.80;;
27566;SDS011;15006;48.584;9.186;2023-02-18T04:26:16;0.77;;;0.77;;
27566;SDS011;15006;48.584;9.186;2023-02-18T04:28:42;0.70;;;0.70;;
27566;SDS011;15006;48.584;9.186;2023-02-18T04:31:08;0.80;;;0.80;;
27566;SDS011;15006;48.584;9.186;2023-02-18T04:33:35;0.65;;;0.65;;
27566;SDS011;15006;48.584;9.186;2023-02-18T04:36:01;0.93;;;0.80;;
27566;SDS011;15006;48.584;9.186;2023-02-18T04:38:28;0.82;;;0.82;;
27566;SDS011;15006;48.584;9.186;2023-02-18T04:40:54;0.95;;;0.82;;
27566;SDS011;15006;48.584;9.186;2023-02-18T04:43:20;0.70;;;0.70;;
27566;SDS011;15006;48.584;9.186;2023-02-18T04:45:46;0.70;;;0.70;;
27566;SDS011;15006;48.584;9.186;2023-02-18T04:48:12;1.10;;;1.10;;
27566;SDS011;15006;48.584;9.186;2023-02-18T04:50:38;0.80;;;0.80;;
27566;SDS011;15006;48.584;9.186;2023-02-18T04:53:04;0.82;;;0.82;;
27566;SDS011;15006;48.584;9.186;2023-02-18T04:55:30;0.75;;;0.75;;
27566;SDS011;15006;48.584;9.186;2023-02-18T04:57:56;0.80;;;0.80;;
27566;SDS011;15006;48.584;9.186;2023-02-18T05:00:22;0.77;;;0.77;;
27566;SDS011;15006;48.584;9.186;2023-02-18T05:02:48;0.90;;;0.90;;
27566;SDS011;15006;48.584;9.186;2023-02-18T05:05:14;1.20;;;0.90;;
27566;SDS011;15006;48.584;9.186;2023-02-18T05:07:40;1.20;;;1.00;;
27566;SDS011;15006;48.584;9.186;2023-02-18T05:10:07;0.90;;;0.90;;
27566;SDS011;15006;48.584;9.186;2023-02-18T05:12:35;0.80;;;0.80;;
27566;SDS011;15006;48.584;9.186;2023-02-18T05:15:01;0.80;;;0.80;;
27566;SDS011;15006;48.584;9.186;2023-02-18T05:17:28;0.70;;;0.70;;
27566;SDS011;15006;48.584;9.186;2023-02-18T05:19:54;0.80;;;0.80;;
27566;SDS011;15006;48.584;9.186;2023-02-18T05:22:20;3.80;;;0.90;;
27566;SDS011;15006;48.584;9.186;2023-02-18T05:24:46;0.85;;;0.85;;
27566;SDS011;15006;48.584;9.186;2023-02-18T05:27:12;1.00;;;1.00;;
27566;SDS011;15006;48.584;9.186;2023-02-18T05:29:38;0.80;;;0.80;;
27566;SDS011;15006;48.584;9.186;2023-02-18T05:32:04;2.55;;;0.90;;
27566;SDS011;15006;48.584;9.186;2023-02-18T05:34:30;1.02;;;0.93;;
27566;SDS011;15006;48.584;9.186;2023-02-18T05:36:56;0.95;;;0.95;;
27566;SDS011;15006;48.584;9.186;2023-02-18T05:39:22;0.73;;;0.70;;
27566;SDS011;15006;48.584;9.186;2023-02-18T05:41:48;0.60;;;0.60;;
27566;SDS011;15006;48.584;9.186;2023-02-18T05:44:14;2.03;;;0.70;;
27566;SDS011;15006;48.584;9.186;2023-02-18T05:47:03;0.90;;;0.90;;
27566;SDS011;15006;48.584;9.186;2023-02-18T05:49:32;1.10;;;1.00;;
27566;SDS011;15006;48.584;9.186;2023-02-18T05:51:59;1.00;;;0.90;;
27566;SDS011;15006;48.584;9.186;2023-02-18T05:54:26;0.77;;;0.77;;
27566;SDS011;15006;48.584;9.186;2023-02-18T05:56:52;0.82;;;0.82;;
27566;SDS011;15006;48.584;9.186;2023-02-18T05:59:19;0.90;;;0.90;;
27566;SDS011;15006;48.584;9.186;2023-02-18T06:01:46;1.00;;;1.00;;
27566;SDS011;15006;48.584;9.186;2023-02-18T06:04:13;0.90;;;0.90;;
27566;SDS011;15006;48.584;9.186;2023-02-18T06:06:40;0.90;;;0.90;;
27566;SDS011;15006;48.584;9.186;2023-02-18T06:09:08;0.80;;;0.80;;
27566;SDS011;15006;48.584;9.186;2023-02-18T06:11:34;0.90;;;0.90;;
27566;SDS011;15006;48.584;9.186;2023-02-18T06:14:01;0.90;;;0.90;;
27566;SDS011;15006;48.584;9.186;2023-02-18T06:16:27;1.00;;;0.90;;
27566;SDS011;15006;48.584;9.186;2023-02-18T06:18:53;1.17;;;1.08;;
27566;SDS011;15006;48.584;9.186;2023-02-18T06:21:19;0.88;;;0.88;;
27566;SDS011;15006;48.584;9.186;2023-02-18T06:23:45;0.77;;;0.77;;
27566;SDS011;15006;48.584;9.186;2023-02-18T06:26:12;0.88;;;0.88;;
27566;SDS011;15006;48.584;9.186;2023-02-18T06:28:38;0.80;;;0.80;;
27566;SDS011;15006;48.584;9.186;2023-02-18T06:31:04;1.00;;;1.00;;
27566;SDS011;15006;48.584;9.186;2023-02-18T06:33:30;0.95;;;0.90;;
27566;SDS011;15006;48.584;9.186;2023-02-18T06:36:00;1.67;;;1.00;;
27566;SDS011;15006;48.584;9.186;2023-02-18T06:38:32;1.05;;;0.95;;
27566;SDS011;15006;48.584;9.186;2023-02-18T06:40:59;0.80;;;0.80;;
27566;SDS011;15006;48.584;9.186;2023-02-18T06:43:26;1.02;;;1.02;;
27566;SDS011;15006;48.584;9.186;2023-02-18T06:45:52;2.20;;;0.90;;
27566;SDS011;15006;48.584;9.186;2023-02-18T06:48:18;0.80;;;0.80;;
27566;SDS011;15006;48.584;9.186;2023-02-18T06:50:45;1.10;;;1.08;;
27566;SDS011;15006;48.584;9.186;2023-02-18T06:53:11;0.95;;;0.95;;
27566;SDS011;15006;48.584;9.186;2023-02-18T06:55:37;0.80;;;0.80;;
27566;SDS011;15006;48.584;9.186;2023-02-18T06:58:03;0.93;;;0.93;;
27566;SDS011;15006;48.584;9.186;2023-02-18T07:00:29;0.82;;;0.82;;
27566;SDS011;15006;48.584;9.186;2023-02-18T07:02:56;1.08;;;0.98;;
27566;SDS011;15006;48.584;9.186;2023-02-18T07:05:22;1.25;;;0.90;;
27566;SDS011;15006;48.584;9.186;2023-02-18T07:07:48;1.23;;;1.10;;
27566;SDS011;15006;48.584;9.186;2023-02-18T07:10:14;2.20;;;0.80;;
27566;SDS011;15006;48.584;9.186;2023-02-18T07:12:40;0.90;;;0.90;;
27566;SDS011;15006;48.584;9.186;2023-02-18T07:15:06;0.75;;;0.70;;
27566;SDS011;15006;48.584;9.186;2023-02-18T07:17:33;0.88;;;0.88;;
27566;SDS011;15006;48.584;9.186;2023-02-18T07:19:59;1.25;;;0.85;;
27566;SDS011;15006;48.584;9.186;2023-02-18T07:22:25;1.17;;;1.08;;
27566;SDS011;15006;48.584;9.186;2023-02-18T07:24:51;0.85;;;0.85;;
27566;SDS011;15006;48.584;9.186;2023-02-18T07:27:19;0.80;;;0.80;;
27566;SDS011;15006;48.584;9.186;2023-02-18T07:29:45;1.02;;;0.80;;
27566;SDS011;15006;48.584;9.186;2023-02-18T07:32:12;0.90;;;0.90;;
27566;SDS011;15006;48.584;9.186;2023-02-18T07:34:39;0.85;;;0.85;;
27566;SDS011;15006;48.584;9.186;2023-02-18T07:37:05;2.63;;;1.25;;
27566;SDS011;15006;48.584;9.186;2023-02-18T07:39:40;0.98;;;0.98;;
27566;SDS011;15006;48.584;9.186;2023-02-18T07:42:07;0.90;;;0.90;;
27566;SDS011;15006;48.584;9.186;2023-02-18T07:44:35;1.42;;;1.33;;
27566;SDS011;15006;48.584;9.186;2023-02-18T07:47:03;1.10;;;1.10;;
27566;SDS011;15006;48.584;9.186;2023-02-18T07:49:31;1.23;;;1.23;;
27566;SDS011;15006;48.584;9.186;2023-02-18T07:51:57;0.90;;;0.90;;
27566;SDS011;15006;48.584;9.186;2023-02-18T07:54:23;1.00;;;1.00;;
27566;SDS011;15006;48.584;9.186;2023-02-18T07:56:49;0.93;;;0.93;;
27566;SDS011;15006;48.584;9.186;2023-02-18T07:59:16;0.95;;;0.95;;
27566;SDS011;15006;48.584;9.186;2023-02-18T08:01:42;1.13;;;1.13;;
27566;SDS011;15006;48.584;9.186;2023-02-18T08:04:08;1.02;;;0.93;;
27566;SDS011;15006;48.584;9.186;2023-02-18T08:06:38;0.82;;;0.82;;
27566;SDS011;15006;48.584;9.186;2023-02-18T08:09:07;0.95;;;0.95;;
27566;SDS011;15006;48.584;9.186;2023-02-18T08:11:33;0.90;;;0.90;;
27566;SDS011;15006;48.584;9.186;2023-02-18T08:14:00;1.02;;;1.00;;
27566;SDS011;15006;48.584;9.186;2023-02-18T08:16:26;1.85;;;1.25;;
27566;SDS011;15006;48.584;9.186;2023-02-18T08:18:53;0.80;;;0.80;;
27566;SDS011;15006;48.584;9.186;2023-02-18T08:21:20;1.30;;;1.20;;
27566;SDS011;15006;48.584;9.186;2023-02-18T08:23:48;0.88;;;0.88;;
27566;SDS011;15006;48.584;9.186;2023-02-18T08:26:15;3.47;;;1.00;;
27566;SDS011;15006;48.584;9.186;2023-02-18T08:28:42;1.20;;;0.93;;
27566;SDS011;15006;48.584;9.186;2023-02-18T08:31:42;0.80;;;0.80;;
27566;SDS011;15006;48.584;9.186;2023-02-18T08:34:02;0.90;;;0.90;;
27566;SDS011;15006;48.584;9.186;2023-02-18T08:36:28;0.80;;;0.80;;
27566;SDS011;15006;48.584;9.186;2023-02-18T08:38:55;0.80;;;0.80;;
27566;SDS011;15006;48.584;9.186;2023-02-18T08:41:22;0.85;;;0.85;;
27566;SDS011;15006;48.584;9.186;2023-02-18T08:43:48;1.13;;;1.02;;
27566;SDS011;15006;48.584;9.186;2023-02-18T08:46:15;0.82;;;0.82;;
27566;SDS011;15006;48.584;9.186;2023-02-18T08:48:42;0.80;;;0.80;;
27566;SDS011;15006;48.584;9.186;2023-02-18T08:51:10;0.85;;;0.85;;
27566;SDS011;15006;48.584;9.186;2023-02-18T08:53:45;0.70;;;0.70;;
27566;SDS011;15006;48.584;9.186;2023-02-18T08:56:12;0.85;;;0.85;;
27566;SDS011;15006;48.584;9.186;2023-02-18T08:58:39;0.77;;;0.70;;
27566;SDS011;15006;48.584;9.186;2023-02-18T09:01:07;1.00;;;1.00;;
27566;SDS011;15006;48.584;9.186;2023-02-18T09:03:35;0.85;;;0.85;;
27566;SDS011;15006;48.584;9.186;2023-02-18T09:06:02;0.85;;;0.80;;
27566;SDS011;15006;48.584;9.186;2023-02-18T09:08:28;0.73;;;0.73;;
27566;SDS011;15006;48.584;9.186;2023-02-18T09:10:58;3.10;;;0.82;;
27566;SDS011;15006;48.584;9.186;2023-02-18T09:13:26;1.05;;;0.93;;
27566;SDS011;15006;48.584;9.186;2023-02-18T09:16:12;0.70;;;0.70;;
27566;SDS011;15006;48.584;9.186;2023-02-18T09:18:42;0.90;;;0.90;;
27566;SDS011;15006;48.584;9.186;2023-02-18T09:21:10;0.70;;;0.70;;
27566;SDS011;15006;48.584;9.186;2023-02-18T09:23:40;0.77;;;0.77;;
27566;SDS011;15006;48.584;9.186;2023-02-18T09:26:07;0.95;;;0.90;;
27566;SDS011;15006;48.584;9.186;2023-02-18T09:28:36;1.38;;;1.38;;
27566;SDS011;15006;48.584;9.186;2023-02-18T09:31:03;1.40;;;0.90;;
27566;SDS011;15006;48.584;9.186;2023-02-18T09:33:44;1.17;;;0.98;;
27566;SDS011;15006;48.584;9.186;2023-02-18T09:36:14;0.80;;;0.80;;
27566;SDS011;15006;48.584;9.186;2023-02-18T09:38:41;0.80;;;0.80;;
27566;SDS011;15006;48.584;9.186;2023-02-18T09:41:09;0.70;;;0.70;;
27566;SDS011;15006;48.584;9.186;2023-02-18T09:44:01;1.77;;;0.90;;
27566;SDS011;15006;48.584;9.186;2023-02-18T09:46:38;0.88;;;0.88;;
27566;SDS011;15006;48.584;9.186;2023-02-18T09:49:15;1.10;;;1.00;;
27566;SDS011;15006;48.584;9.186;2023-02-18T09:51:46;0.80;;;0.80;;
27566;SDS011;15006;48.584;9.186;2023-02-18T09:54:13;1.15;;;1.05;;
27566;SDS011;15006;48.584;9.186;2023-02-18T09:56:43;0.80;;;0.80;;
27566;SDS011;15006;48.584;9.186;2023-02-18T09:59:12;1.15;;;1.05;;
27566;SDS011;15006;48.584;9.186;2023-02-18T10:01:43;3.40;;;0.98;;
27566;SDS011;15006;48.584;9.186;2023-02-18T10:04:16;0.75;;;0.75;;
27566;SDS011;15006;48.584;9.186;2023-02-18T10:06:54;1.20;;;0.80;;
27566;SDS011;15006;48.584;9.186;2023-02-18T10:09:32;2.20;;;0.77;;
27566;SDS011;15006;48.584;9.186;2023-02-18T10:14:39;1.27;;;0.80;;
27566;SDS011;15006;48.584;9.186;2023-02-18T10:17:14;0.68;;;0.68;;
27566;SDS011;15006;48.584;9.186;2023-02-18T10:19:42;1.15;;;0.73;;
27566;SDS011;15006;48.584;9.186;2023-02-18T10:22:11;2.05;;;0.90;;
27566;SDS011;15006;48.584;9.186;2023-02-18T10:24:41;0.80;;;0.80;;
27566;SDS011;15006;48.584;9.186;2023-02-18T10:27:24;1.15;;;0.80;;
27566;SDS011;15006;48.584;9.186;2023-02-18T10:29:54;4.78;;;0.95;;
27566;SDS011;15006;48.584;9.186;2023-02-18T10:32:50;0.50;;;0.50;;
27566;SDS011;15006;48.584;9.186;2023-02-18T10:38:05;0.60;;;0.60;;
27566;SDS011;15006;48.584;9.186;2023-02-18T10:40:52;0.73;;;0.73;;
27566;SDS011;15006;48.584;9.186;2023-02-18T10:43:43;1.20;;;0.70;;
27566;SDS011;15006;48.584;9.186;2023-02-18T10:50:04;0.70;;;0.70;;
27566;SDS011;15006;48.584;9.186;2023-02-18T10:52:42;0.93;;;0.90;;
27566;SDS011;15006;48.584;9.186;2023-02-18T10:55:12;1.23;;;0.88;;
27566;SDS011;15006;48.584;9.186;2023-02-18T10:58:02;1.02;;;0.90;;
27566;SDS011;15006;48.584;9.186;2023-02-18T11:00:33;0.80;;;0.80;;
27566;SDS011;15006;48.584;9.186;2023-02-18T11:08:14;0.73;;;0.73;;
27566;SDS011;15006;48.584;9.186;2023-02-18T11:10:50;0.88;;;0.88;;
27566;SDS011;15006;48.584;9.186;2023-02-18T11:13:25;1.48;;;0.80;;
27566;SDS011;15006;48.584;9.186;2023-02-18T11:15:56;0.60;;;0.60;;
27566;SDS011;15006;48.584;9.186;2023-02-18T11:18:35;1.00;;;0.73;;
27566;SDS011;15006;48.584;9.186;2023-02-18T11:23:51;0.90;;;0.90;;
27566;SDS011;15006;48.584;9.186;2023-02-18T11:26:24;1.00;;;0.90;;
27566;SDS011;15006;48.584;9.186;2023-02-18T11:29:38;2.67;;;0.85;;
27566;SDS011;15006;48.584;9.186;2023-02-18T11:31:48;1.10;;;0.77;;
27566;SDS011;15006;48.584;9.186;2023-02-18T11:34:22;2.72;;;0.82;;
27566;SDS011;15006;48.584;9.186;2023-02-18T11:36:54;2.92;;;0.85;;
27566;SDS011;15006;48.584;9.186;2023-02-18T11:39:33;4.28;;;0.80;;
27566;SDS011;15006;48.584;9.186;2023-02-18T11:42:00;1.77;;;0.70;;
27566;SDS011;15006;48.584;9.186;2023-02-18T11:44:31;0.60;;;0.60;;
27566;SDS011;15006;48.584;9.186;2023-02-18T11:49:41;0.93;;;0.80;;
27566;SDS011;15006;48.584;9.186;2023-02-18T11:55:03;0.70;;;0.70;;
27566;SDS011;15006;48.584;9.186;2023-02-18T11:57:31;1.05;;;0.95;;
27566;SDS011;15006;48.584;9.186;2023-02-18T12:00:03;1.10;;;0.75;;
27566;SDS011;15006;48.584;9.186;2023-02-18T12:02:41;0.73;;;0.73;;
27566;SDS011;15006;48.584;9.186;2023-02-18T12:05:11;1.08;;;0.80;;
27566;SDS011;15006;48.584;9.186;2023-02-18T12:07:45;0.70;;;0.70;;
27566;SDS011;15006;48.584;9.186;2023-02-18T12:10:22;1.38;;;0.98;;
27566;SDS011;15006;48.584;9.186;2023-02-18T12:13:30;0.93;;;0.70;;
27566;SDS011;15006;48.584;9.186;2023-02-18T12:21:40;1.40;;;0.80;;
27566;SDS011;15006;48.584;9.186;2023-02-18T12:27:49;0.80;;;0.80;;
27566;SDS011;15006;48.584;9.186;2023-02-18T12:39:00;0.90;;;0.70;;
27566;SDS011;15006;48.584;9.186;2023-02-18T12:53:11;1.00;;;1.00;;
27566;SDS011;15006;48.584;9.186;2023-02-18T12:56:18;0.70;;;0.70;;
27566;SDS011;15006;48.584;9.186;2023-02-18T12:59:35;0.90;;;0.90;;
27566;SDS011;15006;48.584;9.186;2023-02-18T13:02:29;0.95;;;0.95;;
27566;SDS011;15006;48.584;9.186;2023-02-18T13:11:48;2.35;;;0.90;;
27566;SDS011;15006;48.584;9.186;2023-02-18T13:14:45;1.10;;;0.93;;
27566;SDS011;15006;48.584;9.186;2023-02-18T13:17:21;1.73;;;0.95;;
27566;SDS011;15006;48.584;9.186;2023-02-18T13:20:00;0.90;;;0.77;;
27566;SDS011;15006;48.584;9.186;2023-02-18T13:25:10;0.80;;;0.80;;
27566;SDS011;15006;48.584;9.186;2023-02-18T13:27:40;1.50;;;1.08;;
27566;SDS011;15006;48.584;9.186;2023-02-18T13:30:27;0.93;;;0.85;;
27566;SDS011;15006;48.584;9.186;2023-02-18T13:33:26;1.40;;;0.93;;
27566;SDS011;15006;48.584;9.186;2023-02-18T13:36:08;0.75;;;0.75;;
27566;SDS011;15006;48.584;9.186;2023-02-18T13:39:03;0.70;;;0.70;;
27566;SDS011;15006;48.584;9.186;2023-02-18T13:41:45;0.80;;;0.80;;
27566;SDS011;15006;48.584;9.186;2023-02-18T13:47:01;0.80;;;0.80;;
27566;SDS011;15006;48.584;9.186;2023-02-18T13:49:32;0.93;;;0.93;;
27566;SDS011;15006;48.584;9.186;2023-02-18T13:52:00;0.80;;;0.80;;
27566;SDS011;15006;48.584;9.186;2023-02-18T13:56:58;1.00;;;1.00;;
27566;SDS011;15006;48.584;9.186;2023-02-18T13:59:37;0.95;;;0.90;;
27566;SDS011;15006;48.584;9.186;2023-02-18T14:10:00;1.10;;;1.10;;
27566;SDS011;15006;48.584;9.186;2023-02-18T14:18:06;1.08;;;1.00;;
27566;SDS011;15006;48.584;9.186;2023-02-18T14:23:11;1.98;;;0.90;;
27566;SDS011;15006;48.584;9.186;2023-02-18T14:28:39;0.88;;;0.88;;
27566;SDS011;15006;48.584;9.186;2023-02-18T14:50:00;1.42;;;1.33;;
27566;SDS011;15006;48.584;9.186;2023-02-18T14:52:33;0.98;;;0.98;;
27566;SDS011;15006;48.584;9.186;2023-02-18T14:55:06;1.08;;;0.98;;
27566;SDS011;15006;48.584;9.186;2023-02-18T14:57:53;2.15;;;0.93;;
27566;SDS011;15006;48.584;9.186;2023-02-18T15:00:27;3.63;;;0.90;;
27566;SDS011;15006;48.584;9.186;2023-02-18T15:02:57;0.90;;;0.90;;
27566;SDS011;15006;48.584;9.186;2023-02-18T15:05:26;1.20;;;1.10;;
27566;SDS011;15006;48.584;9.186;2023-02-18T15:08:05;0.80;;;0.80;;
27566;SDS011;15006;48.584;9.186;2023-02-18T15:13:34;0.70;;;0.70;;
27566;SDS011;15006;48.584;9.186;2023-02-18T15:16:08;0.80;;;0.80;;
27566;SDS011;15006;48.584;9.186;2023-02-18T15:18:41;0.70;;;0.70;;
27566;SDS011;15006;48.584;9.186;2023-02-18T15:21:24;2.88;;;0.90;;
27566;SDS011;15006;48.584;9.186;2023-02-18T15:23:54;0.88;;;0.88;;
27566;SDS011;15006;48.584;9.186;2023-02-18T15:26:29;1.52;;;0.80;;
27566;SDS011;15006;48.584;9.186;2023-02-18T15:31:27;3.97;;;1.10;;
27566;SDS011;15006;48.584;9.186;2023-02-18T15:33:59;1.13;;;0.90;;
27566;SDS011;15006;48.584;9.186;2023-02-18T15:36:25;3.45;;;0.80;;
27566;SDS011;15006;48.584;9.186;2023-02-18T15:38:51;0.90;;;0.90;;
27566;SDS011;15006;48.584;9.186;2023-02-18T15:41:19;0.73;;;0.73;;
27566;SDS011;15006;48.584;9.186;2023-02-18T15:44:05;0.95;;;0.95;;
27566;SDS011;15006;48.584;9.186;2023-02-18T15:46:32;0.90;;;0.90;;
27566;SDS011;15006;48.584;9.186;2023-02-18T15:48:58;0.60;;;0.60;;
27566;SDS011;15006;48.584;9.186;2023-02-18T15:51:26;1.30;;;1.20;;
27566;SDS011;15006;48.584;9.186;2023-02-18T15:53:55;3.70;;;1.00;;
27566;SDS011;15006;48.584;9.186;2023-02-18T15:59:07;2.60;;;1.10;;
27566;SDS011;15006;48.584;9.186;2023-02-18T16:02:13;1.20;;;1.10;;
27566;SDS011;15006;48.584;9.186;2023-02-18T16:04:45;0.90;;;0.90;;
27566;SDS011;15006;48.584;9.186;2023-02-18T16:07:24;1.00;;;1.00;;
27566;SDS011;15006;48.584;9.186;2023-02-18T16:10:17;3.67;;;1.88;;
27566;SDS011;15006;48.584;9.186;2023-02-18T16:12:51;1.20;;;1.20;;
27566;SDS011;15006;48.584;9.186;2023-02-18T16:15:28;3.42;;;1.00;;
27566;SDS011;15006;48.584;9.186;2023-02-18T16:17:56;0.90;;;0.90;;
27566;SDS011;15006;48.584;9.186;2023-02-18T16:20:30;1.10;;;1.00;;
27566;SDS011;15006;48.584;9.186;2023-02-18T16:23:07;1.27;;;1.27;;
27566;SDS011;15006;48.584;9.186;2023-02-18T16:28:04;1.08;;;1.05;;
27566;SDS011;15006;48.584;9.186;2023-02-18T16:30:41;1.08;;;1.00;;
27566;SDS011;15006;48.584;9.186;2023-02-18T16:33:10;3.05;;;1.05;;
27566;SDS011;15006;48.584;9.186;2023-02-18T16:35:37;1.17;;;1.00;;
27566;SDS011;15006;48.584;9.186;2023-02-18T16:38:03;3.90;;;1.20;;
27566;SDS011;15006;48.584;9.186;2023-02-18T16:40:33;1.10;;;1.10;;
27566;SDS011;15006;48.584;9.186;2023-02-18T16:43:09;8.20;;;1.20;;
27566;SDS011;15006;48.584;9.186;2023-02-18T16:45:38;0.90;;;0.90;;
27566;SDS011;15006;48.584;9.186;2023-02-18T16:48:14;1.58;;;1.10;;
27566;SDS011;15006;48.584;9.186;2023-02-18T16:50:50;0.90;;;0.90;;
27566;SDS011;15006;48.584;9.186;2023-02-18T16:53:17;1.75;;;1.10;;
27566;SDS011;15006;48.584;9.186;2023-02-18T16:55:44;1.15;;;1.15;;
27566;SDS011;15006;48.584;9.186;2023-02-18T16:58:10;1.25;;;1.15;;
27566;SDS011;15006;48.584;9.186;2023-02-18T17:00:36;1.35;;;1.25;;
27566;SDS011;15006;48.584;9.186;2023-02-18T17:03:02;1.23;;;1.20;;
27566;SDS011;15006;48.584;9.186;2023-02-18T17:05:31;1.02;;;1.02;;
27566;SDS011;15006;48.584;9.186;2023-02-18T17:08:22;2.67;;;1.35;;
27566;SDS011;15006;48.584;9.186;2023-02-18T17:10:50;1.88;;;1.35;;
27566;SDS011;15006;48.584;9.186;2023-02-18T17:13:23;1.23;;;1.20;;
27566;SDS011;15006;48.584;9.186;2023-02-18T17:15:53;1.50;;;1.40;;
27566;SDS011;15006;48.584;9.186;2023-02-18T17:18:21;3.03;;;1.20;;
27566;SDS011;15006;48.584;9.186;2023-02-18T17:20:48;1.67;;;1.23;;
27566;SDS011;15006;48.584;9.186;2023-02-18T17:23:17;5.28;;;1.15;;
27566;SDS011;15006;48.584;9.186;2023-02-18T17:25:47;1.27;;;1.17;;
27566;SDS011;15006;48.584;9.186;2023-02-18T17:28:14;1.15;;;1.15;;
27566;SDS011;15006;48.584;9.186;2023-02-18T17:30:44;1.42;;;1.33;;
27566;SDS011;15006;48.584;9.186;2023-02-18T17:33:17;1.27;;;1.17;;
27566;SDS011;15006;48.584;9.186;2023-02-18T17:35:44;1.25;;;1.20;;
27566;SDS011;15006;48.584;9.186;2023-02-18T17:38:11;3.55;;;1.40;;
27566;SDS011;15006;48.584;9.186;2023-02-18T17:40:38;1.30;;;1.30;;
27566;SDS011;15006;48.584;9.186;2023-02-18T17:43:05;1.17;;;1.10;;
27566;SDS011;15006;48.584;9.186;2023-02-18T17:45:32;1.40;;;1.27;;
27566;SDS011;15006;48.584;9.186;2023-02-18T17:47:59;1.23;;;1.23;;
27566;SDS011;15006;48.584;9.186;2023-02-18T17:50:27;1.40;;;1.30;;
27566;SDS011;15006;48.584;9.186;2023-02-18T17:52:54;1.40;;;1.30;;
27566;SDS011;15006;48.584;9.186;2023-02-18T17:55:21;1.30;;;1.20;;